Portada
METAR-TAF:

METAR-TAF

Aeropuertos :

Memmingen, Alemania

latitud: 47-59-33N, longitud: 10-14-37E, altitud: 633 m

Observación

El informe se hizo hace 44 minutos, a las 02:50 UTC
Viento 6 kt del este-noreste
Temperatura 7°C
Humedad 87%
Presión 1020 hPa
Visibilidad 10 km o más

METAR: EDJA 010250Z AUTO 06006KT 9999 // NCD 07/05 Q1020

Hora: 05:34 (03:34 UTC)

Pronóstico

El informe se hizo hace 1 hora y 34 minutos, a las 02:00 UTC
Pronóstico válido del 01 a las 03 UTC al 01 a las 12 UTC
Viento 6 kt del este-noreste
Visibilidad 10 km o más
sin nubes por debajo de 1500 m y sin presencia de cumulonimbus.
Evolucionando progresivamente
del 01 a las 07 UTC al 01 a las 09 UTC
Viento 11 kt del este-noreste

TAF: EDJA 010200Z 0103/0112 06006KT CAVOK BECMG 0107/0109 06011KT

Observaciones y pronósticos meteorológicos de más de 4000 aeropuertos (mensajes METAR y TAF).

Los puntos amarillos y rojos representan las estaciones disponibles.

Ponga el ratón en el punto deseado para ver el nombre de la estación.

Haga clic para ver las observaciones y los pronósticos meteorológicos.

Para cambiar el mapa : haga clic en los botones verdes con una cruz de color negro para hacer un zoom, en el botón verde con un guión para alejar o en las flechas verdes para mapas adyacentes.


METAR-TAF: